createdAt,value
2023-03-04T00:01:03.441Z,62.73
2023-03-04T00:02:13.579Z,63.13
2023-03-04T00:03:22.880Z,63.08
2023-03-04T00:04:31.580Z,63.32
2023-03-04T00:05:41.039Z,63.58
2023-03-04T00:06:50.021Z,63.27
2023-03-04T00:07:58.966Z,63.30
2023-03-04T00:09:09.004Z,62.93
2023-03-04T00:10:18.309Z,62.98
2023-03-04T00:11:26.867Z,63.52
2023-03-04T00:12:36.389Z,63.55
2023-03-04T00:13:45.299Z,63.74
2023-03-04T00:14:53.989Z,63.93
2023-03-04T00:16:03.881Z,64.09
2023-03-04T00:17:12.412Z,64.18
2023-03-04T00:18:21.371Z,63.99
2023-03-04T00:19:32.027Z,64.34
2023-03-04T00:20:43.829Z,64.45
2023-03-04T00:21:53.241Z,65.07
2023-03-04T00:23:03.109Z,65.18
2023-03-04T00:25:27.208Z,65.19
2023-03-04T00:26:36.075Z,64.90
2023-03-04T00:27:45.586Z,65.30
2023-03-04T00:28:54.672Z,65.52
2023-03-04T00:30:08.163Z,65.50
2023-03-04T00:31:18.596Z,65.27
2023-03-04T00:32:28.073Z,65.60
2023-03-04T00:33:38.152Z,65.48
2023-03-04T00:34:47.691Z,65.60
2023-03-04T00:35:59.042Z,65.78
2023-03-04T00:37:08.775Z,65.74
2023-03-04T00:38:18.418Z,65.83
2023-03-04T00:40:44.223Z,65.96
2023-03-04T00:41:53.210Z,66.07
2023-03-04T00:43:02.449Z,66.09
2023-03-04T00:44:12.214Z,66.29
2023-03-04T00:45:21.111Z,66.31
2023-03-04T00:47:45.000Z,66.22
2023-03-04T00:48:54.412Z,66.06
2023-03-04T00:50:04.158Z,65.69
2023-03-04T00:51:13.244Z,65.82
2023-03-04T00:52:21.862Z,65.95
2023-03-04T00:53:31.382Z,65.85
2023-03-04T00:54:39.899Z,65.87
2023-03-04T00:55:48.641Z,65.72
2023-03-04T00:56:57.636Z,65.82
2023-03-04T00:58:07.054Z,65.94
2023-03-04T00:59:15.563Z,65.81
2023-03-04T01:00:26.860Z,65.54
2023-03-04T01:01:35.909Z,65.59
2023-03-04T01:02:44.841Z,65.55
2023-03-04T01:03:54.008Z,65.78
2023-03-04T01:05:03.858Z,65.21
2023-03-04T01:06:13.158Z,65.24
2023-03-04T01:07:22.650Z,65.07
2023-03-04T01:08:32.109Z,65.26
2023-03-04T01:09:41.541Z,65.40
2023-03-04T01:10:50.729Z,65.36
2023-03-04T01:12:00.133Z,65.45
2023-03-04T01:13:09.751Z,65.06
2023-03-04T01:14:19.669Z,65.08
2023-03-04T01:15:28.598Z,65.21
2023-03-04T01:16:37.396Z,64.86
2023-03-04T01:17:46.482Z,64.95
2023-03-04T01:18:59.124Z,64.98
2023-03-04T01:20:10.542Z,65.36
2023-03-04T01:22:35.092Z,64.96
2023-03-04T01:23:46.123Z,65.07
2023-03-04T01:24:54.934Z,64.97
2023-03-04T01:26:03.722Z,65.23
2023-03-04T01:27:14.589Z,65.44
2023-03-04T01:28:22.904Z,65.42
2023-03-04T01:29:32.678Z,65.18
2023-03-04T01:30:41.970Z,65.41
2023-03-04T01:31:51.648Z,65.65
2023-03-04T01:33:02.192Z,65.67
2023-03-04T01:34:10.960Z,65.49
2023-03-04T01:35:19.979Z,65.53
2023-03-04T01:36:29.293Z,65.63
2023-03-04T01:37:39.389Z,65.90
2023-03-04T01:40:05.380Z,65.85
2023-03-04T01:41:17.653Z,65.56
2023-03-04T01:42:30.910Z,65.57
2023-03-04T01:43:41.082Z,65.84
2023-03-04T01:46:09.136Z,65.92
2023-03-04T01:47:19.873Z,65.52
2023-03-04T01:48:38.523Z,65.60
2023-03-04T01:49:51.873Z,65.55
2023-03-04T01:51:04.292Z,65.81
2023-03-04T01:52:15.877Z,65.49
2023-03-04T01:53:27.645Z,65.52
2023-03-04T01:54:36.183Z,65.43
2023-03-04T01:55:46.349Z,65.59
2023-03-04T01:56:57.560Z,65.61
2023-03-04T01:58:10.411Z,65.62
2023-03-04T01:59:25.707Z,65.31
2023-03-04T02:00:36.326Z,65.42
2023-03-04T02:01:48.717Z,65.54
2023-03-04T02:03:03.236Z,65.45
2023-03-04T02:04:13.055Z,65.62
2023-03-04T02:05:23.267Z,65.48
2023-03-04T02:06:32.320Z,65.38
2023-03-04T02:07:41.579Z,65.62
2023-03-04T02:08:52.370Z,65.53
2023-03-04T02:10:01.439Z,65.55
2023-03-04T02:11:11.187Z,65.66
2023-03-04T02:13:42.248Z,65.28
2023-03-04T02:14:51.879Z,65.21
2023-03-04T02:16:00.352Z,65.19
2023-03-04T02:17:13.445Z,65.42
2023-03-04T02:18:24.865Z,65.17
2023-03-04T02:19:43.042Z,65.36
2023-03-04T02:21:07.006Z,65.52
2023-03-04T02:22:26.009Z,65.90
2023-03-04T02:23:47.820Z,65.72
2023-03-04T02:25:03.841Z,65.19
2023-03-04T02:26:27.873Z,65.55
2023-03-04T02:27:37.713Z,65.92
2023-03-04T02:28:50.421Z,65.49
2023-03-04T02:29:59.638Z,65.53
2023-03-04T02:31:13.013Z,66.02
2023-03-04T02:32:22.300Z,65.86
2023-03-04T02:33:33.100Z,65.88
2023-03-04T02:34:46.264Z,65.79
2023-03-04T02:35:56.453Z,66.06
2023-03-04T02:37:07.310Z,65.79
2023-03-04T02:38:16.675Z,65.98
2023-03-04T02:41:02.952Z,66.40
2023-03-04T02:42:12.464Z,65.92
2023-03-04T02:43:21.263Z,66.13
2023-03-04T02:44:34.107Z,66.02
2023-03-04T02:45:47.468Z,66.02
2023-03-04T02:46:58.015Z,66.29
2023-03-04T02:48:08.445Z,66.02
2023-03-04T02:49:19.731Z,66.18
2023-03-04T02:50:32.464Z,66.05
2023-03-04T02:51:41.665Z,66.11
2023-03-04T02:52:51.196Z,66.51
2023-03-04T02:54:01.341Z,66.56
2023-03-04T02:55:10.762Z,66.79
2023-03-04T02:56:19.720Z,67.04
2023-03-04T02:57:30.921Z,67.16
2023-03-04T02:58:41.736Z,67.33
2023-03-04T02:59:51.553Z,67.19
2023-03-04T03:01:02.516Z,66.80
2023-03-04T03:02:11.936Z,66.90
2023-03-04T03:03:21.268Z,67.00
2023-03-04T03:04:31.309Z,67.15
2023-03-04T03:05:40.544Z,67.40
2023-03-04T03:06:49.671Z,67.67
2023-03-04T03:07:58.974Z,67.81
2023-03-04T03:09:09.430Z,67.79
2023-03-04T03:11:35.527Z,67.83
2023-03-04T03:12:46.540Z,67.69
2023-03-04T03:13:56.673Z,67.80
2023-03-04T03:16:22.425Z,67.88
2023-03-04T03:17:32.901Z,67.72
2023-03-04T03:18:42.579Z,68.04
2023-03-04T03:19:51.253Z,68.18
2023-03-04T03:20:59.881Z,68.24
2023-03-04T03:23:24.432Z,68.25
2023-03-04T03:24:33.755Z,67.95
2023-03-04T03:25:42.196Z,67.79
2023-03-04T03:26:51.392Z,68.12
2023-03-04T03:28:01.486Z,68.41
2023-03-04T03:29:11.204Z,68.60
2023-03-04T03:31:37.125Z,68.10
2023-03-04T03:32:45.999Z,67.39
2023-03-04T03:33:55.569Z,67.79
2023-03-04T03:35:06.137Z,67.86
2023-03-04T03:36:17.019Z,67.72
2023-03-04T03:37:27.186Z,68.01
2023-03-04T03:38:36.862Z,68.23
2023-03-04T03:39:45.884Z,67.78
2023-03-04T03:42:09.758Z,68.16
2023-03-04T03:43:19.260Z,68.21
2023-03-04T03:44:29.006Z,67.94
2023-03-04T03:45:38.625Z,68.15
2023-03-04T03:46:47.959Z,68.27
2023-03-04T03:47:56.487Z,68.12
2023-03-04T03:49:06.188Z,68.17
2023-03-04T03:50:17.569Z,68.00
2023-03-04T03:51:26.703Z,68.07
2023-03-04T03:52:35.803Z,67.86
2023-03-04T03:53:44.330Z,68.08
2023-03-04T03:54:53.744Z,67.99
2023-03-04T03:56:03.300Z,68.19
2023-03-04T03:57:12.901Z,68.09
2023-03-04T03:58:22.825Z,68.31
2023-03-04T03:59:31.362Z,68.54
2023-03-04T04:00:40.985Z,68.57
2023-03-04T04:01:49.437Z,68.45
2023-03-04T04:03:01.465Z,68.88
2023-03-04T04:04:10.454Z,68.58
2023-03-04T04:05:19.813Z,68.61
2023-03-04T04:06:29.372Z,68.71
2023-03-04T04:07:40.230Z,68.38
2023-03-04T04:08:48.546Z,68.53
2023-03-04T04:09:58.469Z,68.71
2023-03-04T04:11:10.350Z,68.89
2023-03-04T04:12:20.304Z,68.95
2023-03-04T04:13:29.368Z,68.24
2023-03-04T04:14:39.240Z,68.36
2023-03-04T04:15:47.771Z,68.24
2023-03-04T04:16:56.726Z,68.59
2023-03-04T04:18:07.639Z,68.53
2023-03-04T04:20:34.348Z,68.25
2023-03-04T04:21:43.868Z,68.44
2023-03-04T04:22:53.075Z,68.49
2023-03-04T04:24:02.680Z,68.64
2023-03-04T04:25:12.256Z,69.37
2023-03-04T04:26:20.992Z,69.87
2023-03-04T04:27:29.608Z,70.03
2023-03-04T04:28:38.658Z,69.94
2023-03-04T04:29:47.091Z,70.19
2023-03-04T04:32:13.172Z,70.70
2023-03-04T04:33:25.892Z,71.07
2023-03-04T04:34:35.228Z,71.08
2023-03-04T04:35:44.308Z,70.20
2023-03-04T04:36:54.514Z,69.88
2023-03-04T04:38:05.245Z,69.50
2023-03-04T04:40:28.967Z,68.87
2023-03-04T04:41:40.678Z,68.64
2023-03-04T04:42:49.433Z,69.05
2023-03-04T04:43:59.389Z,69.33
2023-03-04T04:45:10.831Z,68.59
2023-03-04T04:46:21.676Z,68.67
2023-03-04T04:48:45.522Z,68.67
2023-03-04T04:49:56.230Z,68.89
2023-03-04T04:52:20.079Z,69.21
2023-03-04T04:53:29.087Z,69.53
2023-03-04T04:54:38.666Z,69.66
2023-03-04T04:55:47.642Z,70.08
2023-03-04T04:56:57.609Z,69.91
2023-03-04T04:58:07.355Z,70.10
2023-03-04T04:59:16.366Z,69.84
2023-03-04T05:00:27.196Z,69.59
2023-03-04T05:01:37.037Z,69.23
2023-03-04T05:02:46.582Z,69.28
2023-03-04T05:03:57.313Z,68.87
2023-03-04T05:05:08.293Z,68.91
2023-03-04T05:06:18.451Z,69.39
2023-03-04T05:07:27.266Z,70.00
2023-03-04T05:08:36.248Z,70.10
2023-03-04T05:09:45.490Z,69.79
2023-03-04T05:10:55.663Z,69.97
2023-03-04T05:12:05.489Z,69.32
2023-03-04T05:14:29.978Z,68.17
2023-03-04T05:15:39.816Z,68.36
2023-03-04T05:18:08.454Z,69.38
2023-03-04T05:19:19.631Z,69.11
2023-03-04T05:20:28.341Z,69.17
2023-03-04T05:21:36.980Z,69.37
2023-03-04T05:22:46.512Z,69.56
2023-03-04T05:23:54.999Z,69.27
2023-03-04T05:25:04.521Z,69.35
2023-03-04T05:26:16.026Z,69.64
2023-03-04T05:27:25.162Z,69.98
2023-03-04T05:28:35.492Z,69.66
2023-03-04T05:31:02.391Z,69.34
2023-03-04T05:32:10.869Z,69.49
2023-03-04T05:33:21.174Z,69.53
2023-03-04T05:34:30.696Z,69.27
2023-03-04T05:35:41.354Z,68.77
2023-03-04T05:36:49.762Z,68.67
2023-03-04T05:37:59.937Z,68.84
2023-03-04T05:40:25.604Z,69.47
2023-03-04T05:41:35.276Z,69.67
2023-03-04T05:42:44.910Z,68.91
2023-03-04T05:43:54.101Z,68.95
2023-03-04T05:45:03.749Z,68.72
2023-03-04T05:46:17.261Z,68.39
2023-03-04T05:47:26.288Z,68.24
2023-03-04T05:48:35.817Z,68.42
2023-03-04T05:49:45.782Z,68.26
2023-03-04T05:50:56.657Z,67.41
2023-03-04T05:52:06.334Z,67.76
2023-03-04T05:53:15.902Z,68.46
2023-03-04T05:54:25.439Z,68.51
2023-03-04T05:55:34.076Z,68.75
2023-03-04T05:56:43.537Z,68.65
2023-03-04T05:57:52.081Z,68.21
2023-03-04T05:59:03.617Z,67.67
2023-03-04T06:00:14.692Z,68.12
2023-03-04T06:01:23.341Z,68.30
2023-03-04T06:02:31.913Z,68.01
2023-03-04T06:03:42.508Z,67.48
2023-03-04T06:04:51.071Z,67.25
2023-03-04T06:05:59.759Z,67.73
2023-03-04T06:07:08.472Z,67.81
2023-03-04T06:08:18.254Z,67.10
2023-03-04T06:09:27.984Z,67.35
2023-03-04T06:10:36.954Z,67.28
2023-03-04T06:11:45.506Z,67.10
2023-03-04T06:12:54.116Z,67.37
2023-03-04T06:14:03.543Z,66.92
2023-03-04T06:15:13.341Z,66.80
2023-03-04T06:16:23.469Z,68.00
2023-03-04T06:17:32.601Z,65.94
2023-03-04T06:18:41.140Z,65.45
2023-03-04T06:19:50.903Z,65.48
2023-03-04T06:21:02.523Z,65.81
2023-03-04T06:22:11.284Z,65.23
2023-03-04T06:23:19.713Z,64.92
2023-03-04T06:24:28.147Z,65.12
2023-03-04T06:25:36.704Z,65.23
2023-03-04T06:26:45.770Z,65.07
2023-03-04T06:27:55.322Z,66.02
2023-03-04T06:29:07.801Z,66.26
2023-03-04T06:31:33.081Z,65.72
2023-03-04T06:32:45.006Z,65.70
2023-03-04T06:33:54.435Z,65.47
2023-03-04T06:35:05.942Z,65.25
2023-03-04T06:36:15.238Z,64.97
2023-03-04T06:37:23.881Z,65.02
2023-03-04T06:38:33.472Z,65.34
2023-03-04T06:39:42.395Z,65.23
2023-03-04T06:40:51.555Z,65.60
2023-03-04T06:42:00.183Z,64.95
2023-03-04T06:43:08.647Z,64.83
2023-03-04T06:44:18.222Z,64.40
2023-03-04T06:45:28.295Z,64.32
2023-03-04T06:47:53.086Z,63.82
2023-03-04T06:50:18.426Z,63.43
2023-03-04T06:51:28.625Z,63.54
2023-03-04T06:52:41.179Z,63.29
2023-03-04T06:53:49.810Z,62.91
2023-03-04T06:56:16.716Z,63.94
2023-03-04T06:57:25.470Z,63.43
2023-03-04T06:58:35.043Z,63.27
2023-03-04T06:59:43.938Z,63.46
2023-03-04T07:00:54.432Z,63.13
2023-03-04T07:02:03.135Z,63.37
2023-03-04T07:04:28.035Z,63.16
2023-03-04T07:05:37.034Z,63.01
2023-03-04T07:08:00.885Z,63.06
2023-03-04T07:09:09.941Z,62.88
2023-03-04T07:11:36.156Z,62.85
2023-03-04T07:12:44.750Z,63.15
2023-03-04T07:13:53.732Z,63.18
2023-03-04T07:16:22.314Z,62.50
2023-03-04T07:17:31.980Z,63.66
2023-03-04T07:19:55.489Z,63.52
2023-03-04T07:21:06.469Z,63.25
2023-03-04T07:22:17.246Z,63.75
2023-03-04T07:23:26.719Z,63.56
2023-03-04T07:24:36.285Z,63.17
2023-03-04T07:27:00.344Z,63.04
2023-03-04T07:28:08.957Z,62.58
2023-03-04T07:29:19.302Z,62.52
2023-03-04T07:30:28.556Z,62.12
2023-03-04T07:31:38.199Z,63.03
2023-03-04T07:34:05.058Z,63.06
2023-03-04T07:35:14.419Z,63.31
2023-03-04T07:36:23.509Z,62.96
2023-03-04T07:37:31.959Z,62.23
2023-03-04T07:38:45.934Z,62.64
2023-03-04T07:41:09.980Z,62.19
2023-03-04T07:42:18.591Z,62.58
2023-03-04T07:43:29.134Z,61.92
2023-03-04T07:44:37.802Z,62.42
2023-03-04T07:45:46.289Z,61.56
2023-03-04T07:46:55.181Z,62.21
2023-03-04T07:49:20.610Z,62.18
2023-03-04T07:50:29.792Z,62.14
2023-03-04T07:51:38.864Z,61.60
2023-03-04T07:52:50.545Z,61.53
2023-03-04T07:55:16.379Z,60.50
2023-03-04T07:57:46.283Z,60.85
2023-03-04T07:58:56.616Z,61.08
2023-03-04T08:00:07.218Z,60.42
2023-03-04T08:02:40.664Z,60.99
2023-03-04T08:03:51.813Z,60.67
2023-03-04T08:05:00.348Z,60.53
2023-03-04T08:07:27.798Z,59.89
2023-03-04T08:08:38.470Z,59.97
2023-03-04T08:12:25.234Z,59.76
2023-03-04T08:13:35.180Z,59.22
2023-03-04T08:16:22.053Z,59.55
2023-03-04T08:17:30.919Z,59.28
2023-03-04T08:18:41.154Z,58.52
2023-03-04T08:19:50.812Z,58.64
2023-03-04T08:20:59.960Z,59.01
2023-03-04T08:22:08.510Z,59.10
2023-03-04T08:24:32.815Z,58.65
2023-03-04T08:25:42.864Z,58.93
2023-03-04T08:26:51.490Z,59.00
2023-03-04T08:28:00.044Z,58.54
2023-03-04T08:29:13.261Z,58.13
2023-03-04T08:31:39.744Z,58.10
2023-03-04T08:32:48.455Z,57.75
2023-03-04T08:33:57.183Z,57.96
2023-03-04T08:35:07.976Z,57.94
2023-03-04T08:36:17.658Z,58.13
2023-03-04T08:37:26.579Z,57.94
2023-03-04T08:39:50.103Z,58.00
2023-03-04T08:41:00.629Z,58.12
2023-03-04T08:43:26.375Z,57.20
2023-03-04T08:45:53.850Z,57.63
2023-03-04T08:48:23.947Z,58.35
2023-03-04T08:49:32.372Z,58.58
2023-03-04T08:50:43.231Z,57.97
2023-03-04T08:51:52.106Z,58.00
2023-03-04T08:53:00.819Z,58.01
2023-03-04T08:54:09.686Z,57.90
2023-03-04T08:55:20.097Z,57.78
2023-03-04T08:56:29.391Z,57.66
2023-03-04T08:57:38.809Z,57.70
2023-03-04T08:58:47.551Z,57.71
2023-03-04T08:59:57.193Z,57.20
2023-03-04T09:01:10.208Z,57.14
2023-03-04T09:02:19.872Z,57.36
2023-03-04T09:03:32.078Z,57.16
2023-03-04T09:05:56.982Z,57.05
2023-03-04T09:07:06.957Z,56.71
2023-03-04T09:08:17.033Z,56.39
2023-03-04T09:09:26.450Z,56.57
2023-03-04T09:10:36.228Z,56.09
2023-03-04T09:11:45.160Z,56.09
2023-03-04T09:14:08.745Z,55.79
2023-03-04T09:15:17.604Z,55.53
2023-03-04T09:16:26.694Z,56.07
2023-03-04T09:17:36.312Z,55.37
2023-03-04T09:19:59.695Z,56.02
2023-03-04T09:21:11.684Z,55.74
2023-03-04T09:23:36.383Z,55.80
2023-03-04T09:24:45.958Z,56.08
2023-03-04T09:25:54.524Z,56.43
2023-03-04T09:28:19.838Z,56.46
2023-03-04T09:29:28.629Z,56.98
2023-03-04T09:31:53.261Z,56.88
2023-03-04T09:33:01.976Z,56.56
2023-03-04T09:34:11.760Z,57.43
2023-03-04T09:36:35.996Z,56.92
2023-03-04T09:37:46.079Z,56.28
2023-03-04T09:38:55.072Z,56.08
2023-03-04T09:40:05.751Z,56.56
2023-03-04T09:42:49.857Z,56.05
2023-03-04T09:44:00.964Z,56.05
2023-03-04T09:45:13.460Z,55.53
2023-03-04T09:46:36.443Z,55.49
2023-03-04T09:47:48.002Z,55.13
2023-03-04T09:48:58.609Z,55.40
2023-03-04T09:50:10.427Z,55.33
2023-03-04T09:51:35.520Z,55.18
2023-03-04T09:53:04.509Z,55.32
2023-03-04T09:55:48.034Z,55.13
2023-03-04T09:58:34.848Z,55.10
2023-03-04T10:01:28.538Z,54.46
2023-03-04T10:02:54.780Z,54.44
2023-03-04T10:05:26.347Z,53.27
2023-03-04T10:06:37.982Z,53.22
2023-03-04T10:09:17.839Z,53.11
2023-03-04T10:12:07.506Z,52.62
2023-03-04T10:13:22.164Z,52.44
2023-03-04T10:15:53.150Z,52.48
2023-03-04T10:18:42.971Z,52.16
2023-03-04T10:20:07.833Z,52.43
2023-03-04T10:21:38.804Z,52.66
2023-03-04T10:22:50.689Z,52.76
2023-03-04T10:24:18.228Z,53.13
2023-03-04T10:26:49.657Z,52.80
2023-03-04T10:28:04.839Z,52.88
2023-03-04T10:29:16.488Z,52.80
2023-03-04T10:30:44.694Z,52.73
2023-03-04T10:33:19.037Z,52.94
2023-03-04T10:34:28.606Z,53.00
2023-03-04T10:37:03.730Z,52.96
2023-03-04T10:38:13.582Z,52.87
2023-03-04T10:40:47.521Z,52.70
2023-03-04T10:42:15.501Z,52.53
2023-03-04T10:43:25.585Z,52.38
2023-03-04T10:44:38.392Z,52.25
2023-03-04T10:47:08.000Z,51.97
2023-03-04T10:51:22.645Z,51.38
2023-03-04T10:54:02.370Z,51.71
2023-03-04T10:55:20.432Z,51.84
2023-03-04T10:58:07.952Z,52.26
2023-03-04T10:59:46.474Z,52.28
2023-03-04T11:03:50.420Z,51.85
2023-03-04T11:06:39.819Z,52.03
2023-03-04T11:10:40.615Z,51.66
2023-03-04T11:11:52.872Z,51.47
2023-03-04T11:13:11.453Z,51.74
2023-03-04T11:16:00.441Z,51.73
2023-03-04T11:17:21.688Z,52.14
2023-03-04T11:18:40.416Z,51.87
2023-03-04T11:21:19.673Z,51.45
2023-03-04T11:22:30.488Z,51.32
2023-03-04T11:23:46.704Z,51.65
2023-03-04T11:26:23.078Z,51.22
2023-03-04T11:29:15.715Z,50.67
2023-03-04T11:30:28.896Z,50.88
2023-03-04T11:31:50.447Z,50.70
2023-03-04T11:33:13.514Z,50.57
2023-03-04T11:34:32.080Z,50.88
2023-03-04T11:37:37.798Z,50.17
2023-03-04T11:40:30.366Z,50.14
2023-03-04T11:43:05.452Z,50.19
2023-03-04T11:44:15.291Z,50.52
2023-03-04T11:46:54.256Z,50.88
2023-03-04T11:48:40.146Z,50.96
2023-03-04T11:51:35.601Z,51.46
2023-03-04T11:52:57.135Z,51.34
2023-03-04T11:54:33.019Z,51.28
2023-03-04T11:57:12.951Z,51.33
2023-03-04T11:58:46.730Z,52.64
2023-03-04T12:01:48.802Z,52.84
2023-03-04T12:03:19.863Z,52.66
2023-03-04T12:04:36.937Z,52.37
2023-03-04T12:05:53.397Z,52.43
2023-03-04T12:08:48.522Z,52.42
2023-03-04T12:10:12.801Z,52.20
2023-03-04T12:13:14.361Z,52.00
2023-03-04T12:16:00.540Z,51.82
2023-03-04T12:17:36.230Z,51.89
2023-03-04T12:19:09.838Z,52.19
2023-03-04T12:22:45.249Z,52.14
2023-03-04T12:25:42.202Z,52.67
2023-03-04T12:28:40.800Z,53.28
2023-03-04T12:30:01.616Z,52.86
2023-03-04T12:31:19.742Z,53.02
2023-03-04T12:32:41.861Z,52.78
2023-03-04T12:33:57.595Z,52.67
2023-03-04T12:35:22.218Z,52.60
2023-03-04T12:39:54.689Z,52.47
2023-03-04T12:43:02.556Z,52.22
2023-03-04T12:44:19.305Z,52.05
2023-03-04T12:46:02.103Z,52.15
2023-03-04T12:47:30.512Z,52.06
2023-03-04T12:50:14.067Z,52.19
2023-03-04T12:52:51.853Z,52.37
2023-03-04T12:55:50.380Z,52.05
2023-03-04T12:57:01.056Z,52.15
2023-03-04T12:59:41.976Z,52.07
2023-03-04T13:01:12.040Z,51.96
2023-03-04T13:04:01.441Z,52.00
2023-03-04T13:05:30.902Z,52.09
2023-03-04T13:09:43.454Z,52.39
2023-03-04T13:10:53.644Z,52.42
2023-03-04T13:13:40.596Z,52.24
2023-03-04T13:15:11.438Z,52.61
2023-03-04T13:16:43.464Z,52.48
2023-03-04T13:18:05.548Z,52.37
2023-03-04T13:21:29.509Z,52.23
2023-03-04T13:22:43.422Z,52.07
2023-03-04T13:23:53.771Z,52.19
2023-03-04T13:25:23.408Z,52.34
2023-03-04T13:26:34.358Z,52.39
2023-03-04T13:27:50.420Z,52.22
2023-03-04T13:29:17.835Z,52.29
2023-03-04T13:30:38.754Z,52.15
2023-03-04T13:32:11.409Z,52.09
2023-03-04T13:33:27.168Z,52.07
2023-03-04T13:34:54.025Z,51.88
2023-03-04T13:36:09.407Z,51.76
2023-03-04T13:37:33.294Z,51.68
2023-03-04T13:40:27.927Z,51.99
2023-03-04T13:41:53.924Z,51.82
2023-03-04T13:44:50.629Z,52.02
2023-03-04T13:47:25.214Z,52.12
2023-03-04T13:48:36.677Z,52.22
2023-03-04T13:49:45.986Z,52.20
2023-03-04T13:50:55.448Z,52.15
2023-03-04T13:52:24.184Z,52.13
2023-03-04T13:55:15.838Z,52.26
2023-03-04T13:56:36.952Z,52.18
2023-03-04T13:57:51.615Z,52.41
2023-03-04T13:59:13.018Z,52.35
2023-03-04T14:00:22.489Z,52.38
2023-03-04T14:01:34.940Z,52.38
2023-03-04T14:02:51.505Z,52.24
2023-03-04T14:05:16.842Z,52.31
2023-03-04T14:07:44.273Z,52.88
2023-03-04T14:08:54.543Z,52.68
2023-03-04T14:10:09.914Z,52.62
2023-03-04T14:12:56.249Z,52.78
2023-03-04T14:14:10.313Z,52.66
2023-03-04T14:18:08.102Z,52.78
2023-03-04T14:20:46.682Z,52.49
2023-03-04T14:21:58.753Z,52.52
2023-03-04T14:26:20.815Z,52.33
2023-03-04T14:27:34.598Z,52.43
2023-03-04T14:28:49.849Z,52.31
2023-03-04T14:30:02.192Z,52.15
2023-03-04T14:32:32.116Z,52.58
2023-03-04T14:36:24.016Z,52.58
2023-03-04T14:37:46.103Z,52.65
2023-03-04T14:38:58.376Z,52.81
2023-03-04T14:41:38.074Z,53.13
2023-03-04T14:44:11.619Z,52.92
2023-03-04T14:45:23.576Z,52.88
2023-03-04T14:47:54.170Z,52.81
2023-03-04T14:50:21.167Z,52.74
2023-03-04T14:51:33.212Z,52.78
2023-03-04T14:52:53.802Z,52.48
2023-03-04T14:54:02.610Z,52.21
2023-03-04T14:55:21.639Z,52.20
2023-03-04T14:57:53.782Z,52.19
2023-03-04T14:59:02.719Z,52.31
2023-03-04T15:00:24.329Z,52.32
2023-03-04T15:01:37.247Z,52.18
2023-03-04T15:02:49.297Z,52.34
2023-03-04T15:04:10.897Z,52.44
2023-03-04T15:08:27.284Z,52.82
2023-03-04T15:09:36.542Z,52.69
2023-03-04T15:11:04.634Z,52.61
2023-03-04T15:13:49.164Z,52.63
2023-03-04T15:15:03.455Z,52.70
2023-03-04T15:16:15.202Z,52.55
2023-03-04T15:20:23.160Z,52.86
2023-03-04T15:21:36.163Z,52.99
2023-03-04T15:22:49.811Z,52.87
2023-03-04T15:23:59.804Z,52.70
2023-03-04T15:25:20.118Z,52.62
2023-03-04T15:26:31.239Z,52.57
2023-03-04T15:27:39.933Z,52.66
2023-03-04T15:28:49.116Z,52.49
2023-03-04T15:30:02.350Z,52.63
2023-03-04T15:31:22.199Z,52.47
2023-03-04T15:34:15.835Z,52.66
2023-03-04T15:35:28.127Z,52.93
2023-03-04T15:36:39.070Z,52.93
2023-03-04T15:37:50.035Z,52.75
2023-03-04T15:38:59.427Z,52.69
2023-03-04T15:40:15.150Z,52.64
2023-03-04T15:41:26.735Z,52.39
2023-03-04T15:43:51.750Z,52.73
2023-03-04T15:46:16.983Z,52.80
2023-03-04T15:48:41.897Z,52.94
2023-03-04T15:49:52.054Z,52.82
2023-03-04T15:51:02.504Z,52.68
2023-03-04T15:52:20.601Z,53.08
2023-03-04T15:54:57.706Z,52.54
2023-03-04T15:56:14.613Z,52.63
2023-03-04T15:57:26.749Z,52.59
2023-03-04T15:58:35.940Z,52.94
2023-03-04T15:59:45.298Z,53.05
2023-03-04T16:02:13.691Z,52.74
2023-03-04T16:03:23.666Z,52.53
2023-03-04T16:04:32.859Z,52.49
2023-03-04T16:05:43.930Z,52.61
2023-03-04T16:06:52.745Z,52.50
2023-03-04T16:08:01.424Z,52.34
2023-03-04T16:09:17.387Z,52.31
2023-03-04T16:10:31.056Z,52.31
2023-03-04T16:11:43.873Z,52.39
2023-03-04T16:14:11.242Z,52.08
2023-03-04T16:15:23.594Z,52.21
2023-03-04T16:16:32.313Z,52.11
2023-03-04T16:17:43.308Z,51.97
2023-03-04T16:18:51.947Z,52.10
2023-03-04T16:20:00.470Z,52.09
2023-03-04T16:21:15.313Z,52.18
2023-03-04T16:22:28.283Z,52.28
2023-03-04T16:23:43.519Z,52.06
2023-03-04T16:24:54.260Z,52.09
2023-03-04T16:26:04.143Z,52.40
2023-03-04T16:27:15.044Z,52.49
2023-03-04T16:28:23.720Z,52.46
2023-03-04T16:30:49.569Z,52.73
2023-03-04T16:31:58.343Z,52.71
2023-03-04T16:33:07.901Z,52.60
2023-03-04T16:35:35.314Z,52.91
2023-03-04T16:36:44.148Z,52.89
2023-03-04T16:37:54.502Z,52.99
2023-03-04T16:39:07.352Z,53.07
2023-03-04T16:41:36.663Z,52.70
2023-03-04T16:42:45.515Z,52.62
2023-03-04T16:43:56.648Z,52.91
2023-03-04T16:45:09.897Z,52.93
2023-03-04T16:46:19.649Z,52.92
2023-03-04T16:47:28.725Z,52.88
2023-03-04T16:48:37.737Z,52.99
2023-03-04T16:51:15.356Z,53.08
2023-03-04T16:52:32.639Z,53.21
2023-03-04T16:55:09.740Z,53.25
2023-03-04T16:56:19.591Z,53.34
2023-03-04T16:57:28.408Z,53.54
2023-03-04T16:58:36.825Z,53.78
2023-03-04T16:59:45.556Z,53.79
2023-03-04T17:00:54.680Z,53.89
2023-03-04T17:02:03.156Z,53.84
2023-03-04T17:03:12.040Z,53.91
2023-03-04T17:04:22.193Z,54.12
2023-03-04T17:05:33.378Z,54.17
2023-03-04T17:06:42.385Z,54.07
2023-03-04T17:07:51.499Z,54.22
2023-03-04T17:09:01.039Z,54.17
2023-03-04T17:10:11.970Z,54.30
2023-03-04T17:11:22.685Z,54.52
2023-03-04T17:12:31.251Z,54.37
2023-03-04T17:13:39.875Z,54.54
2023-03-04T17:14:49.826Z,54.44
2023-03-04T17:16:03.195Z,54.47
2023-03-04T17:17:12.654Z,54.54
2023-03-04T17:18:21.264Z,54.20
2023-03-04T17:20:45.618Z,54.38
2023-03-04T17:21:57.442Z,54.27
2023-03-04T17:23:06.270Z,54.18
2023-03-04T17:24:14.891Z,54.38
2023-03-04T17:25:23.531Z,54.49
2023-03-04T17:26:32.858Z,54.49
2023-03-04T17:27:42.298Z,54.57
2023-03-04T17:28:52.361Z,54.78
2023-03-04T17:30:01.300Z,55.28
2023-03-04T17:31:12.627Z,55.34
2023-03-04T17:32:22.059Z,55.36
2023-03-04T17:33:32.705Z,55.25
2023-03-04T17:34:41.797Z,55.18
2023-03-04T17:35:51.129Z,55.27
2023-03-04T17:37:01.316Z,55.50
2023-03-04T17:39:25.290Z,55.62
2023-03-04T17:41:50.587Z,55.85
2023-03-04T17:42:59.763Z,55.79
2023-03-04T17:44:10.330Z,55.69
2023-03-04T17:45:19.796Z,55.68
2023-03-04T17:46:29.571Z,55.78
2023-03-04T17:47:44.843Z,55.65
2023-03-04T17:48:59.273Z,55.93
2023-03-04T17:50:15.073Z,56.26
2023-03-04T17:51:33.551Z,56.43
2023-03-04T17:52:42.235Z,56.23
2023-03-04T17:53:51.359Z,56.18
2023-03-04T17:56:15.209Z,56.45
2023-03-04T17:57:24.373Z,56.37
2023-03-04T17:58:35.328Z,56.27
2023-03-04T17:59:45.363Z,56.15
2023-03-04T18:01:04.248Z,56.46
2023-03-04T18:02:15.642Z,56.43
2023-03-04T18:04:42.305Z,56.36
2023-03-04T18:05:50.897Z,56.33
2023-03-04T18:07:00.261Z,56.75
2023-03-04T18:08:08.893Z,56.89
2023-03-04T18:09:19.603Z,56.79
2023-03-04T18:11:46.076Z,57.09
2023-03-04T18:12:55.281Z,57.32
2023-03-04T18:14:05.570Z,57.28
2023-03-04T18:15:14.684Z,57.34
2023-03-04T18:16:26.225Z,57.17
2023-03-04T18:18:50.980Z,57.41
2023-03-04T18:20:02.077Z,57.21
2023-03-04T18:21:10.811Z,57.31
2023-03-04T18:22:19.227Z,57.26
2023-03-04T18:23:28.848Z,57.20
2023-03-04T18:24:41.158Z,57.36
2023-03-04T18:25:50.736Z,57.99
2023-03-04T18:27:00.151Z,57.89
2023-03-04T18:28:08.877Z,57.80
2023-03-04T18:29:17.702Z,57.76
2023-03-04T18:30:27.966Z,57.69
2023-03-04T18:31:36.592Z,57.64
2023-03-04T18:32:52.285Z,57.63
2023-03-04T18:33:56.475Z,57.45
2023-03-04T18:35:06.223Z,57.56
2023-03-04T18:36:16.657Z,57.61
2023-03-04T18:37:25.223Z,57.89
2023-03-04T18:38:34.140Z,57.83
2023-03-04T18:39:43.384Z,57.81
2023-03-04T18:42:09.954Z,57.53
2023-03-04T18:44:34.787Z,58.03
2023-03-04T18:45:43.368Z,57.95
2023-03-04T18:48:33.682Z,58.61
2023-03-04T18:49:46.233Z,58.57
2023-03-04T18:50:57.873Z,58.47
2023-03-04T18:52:06.508Z,58.22
2023-03-04T18:53:15.428Z,58.05
2023-03-04T18:55:39.026Z,57.98
2023-03-04T18:56:53.881Z,57.65
2023-03-04T18:59:21.772Z,57.66
2023-03-04T19:00:32.170Z,57.33
2023-03-04T19:01:41.374Z,57.56
2023-03-04T19:04:13.690Z,57.31